Date,TemperatureHighF,TemperatureAvgF,TemperatureLowF,DewpointHighF,DewpointAvgF,DewpointLowF,HumidityHigh,HumidityAvg,HumidityLow,PressureMaxIn,PressureMinIn,WindSpeedMaxMPH,WindSpeedAvgMPH,GustSpeedMaxMPH,PrecipitationSumIn
2013-2-1,40,36,24,29,14,4,65,43,25,30.23,29.72,17,5,0,0.00
2013-2-2,46,32,16,37,15,8,84,51,28,30.25,29.87,8,2,0,0.00
2013-2-3,51,42,31,37,31,25,98,69,43,29.86,29.67,9,2,0,0.00
2013-2-4,49,37,24,29,25,22,94,64,38,29.99,29.83,6,1,0,0.00
2013-2-5,63,47,35,37,34,29,93,63,35,29.85,29.70,8,2,0,0.00
2013-2-6,63,45,29,40,30,23,99,65,22,30.12,29.80,8,2,0,0.00
2013-2-7,50,43,37,44,39,34,99,86,69,30.17,29.81,5,3,0,0.40
2013-2-8,58,46,40,49,42,30,99,86,61,29.90,29.64,12,4,0,0.75
2013-2-9,54,39,26,31,26,18,99,64,26,30.20,29.89,8,2,0,0.00
2013-2-10,55,39,22,43,25,21,99,64,29,30.33,30.04,5,1,0,0.01
2013-2-11,63,57,46,62,56,43,99,96,91,30.03,29.74,7,3,0,0.07
2013-2-12,61,53,45,56,39,29,99,64,30,29.92,29.73,6,2,0,0.00
2013-2-13,49,46,42,48,45,38,99,96,66,29.78,29.45,5,1,0,0.15
2013-2-14,52,41,29,40,34,29,99,81,51,29.91,29.67,6,1,0,0.01
2013-2-15,63,43,27,42,34,26,99,75,33,29.93,29.74,5,1,0,0.00
2013-2-16,46,37,31,38,34,28,99,90,70,29.80,29.65,7,3,0,0.52
2013-2-17,39,30,20,27,16,8,87,60,29,30.12,29.75,12,3,0,0.00
2013-2-18,53,35,16,28,19,14,99,60,27,30.26,30.10,7,2,0,0.00
2013-2-19,52,43,35,51,40,28,99,89,64,30.09,29.68,9,2,0,0.15
2013-2-20,54,40,26,35,24,15,99,60,23,29.97,29.80,7,2,0,0.00
2013-2-21,56,41,23,24,21,16,93,50,23,30.08,29.93,7,2,0,0.00
2013-2-22,44,37,33,37,34,22,99,91,43,30.19,29.98,6,2,0,0.46
2013-2-23,44,40,36,44,40,36,99,99,99,29.95,29.64,6,2,0,1.21
2013-2-24,64,48,34,48,40,29,99,78,29,29.86,29.63,8,1,0,0.13
2013-2-25,43,38,32,32,27,23,94,65,49,30.07,29.87,6,2,0,0.00
2013-2-26,58,47,36,58,44,27,99,93,65,29.98,29.36,10,3,0,1.00
2013-2-27,61,48,38,45,42,38,99,81,47,29.62,29.45,7,2,0,0.01
2013-2-28,52,40,30,40,33,28,99,78,40,29.69,29.52,7,1,0,0.00